sensor_id;sensor_type;location;lat;lon;timestamp;P1;durP1;ratioP1;P2;durP2;ratioP2
47251;SDS011;32991;51.374;11.586;2023-04-01T00:01:11;4.13;;;1.40;;
47251;SDS011;32991;51.374;11.586;2023-04-01T00:03:43;3.78;;;1.10;;
47251;SDS011;32991;51.374;11.586;2023-04-01T00:06:14;5.55;;;1.50;;
47251;SDS011;32991;51.374;11.586;2023-04-01T00:08:42;5.22;;;1.40;;
47251;SDS011;32991;51.374;11.586;2023-04-01T00:11:08;3.10;;;1.33;;
47251;SDS011;32991;51.374;11.586;2023-04-01T00:13:35;3.08;;;1.30;;
47251;SDS011;32991;51.374;11.586;2023-04-01T00:16:02;3.03;;;1.20;;
47251;SDS011;32991;51.374;11.586;2023-04-01T00:18:45;5.90;;;1.27;;
47251;SDS011;32991;51.374;11.586;2023-04-01T00:21:13;2.97;;;1.48;;
47251;SDS011;32991;51.374;11.586;2023-04-01T00:23:39;3.08;;;1.27;;
47251;SDS011;32991;51.374;11.586;2023-04-01T00:26:06;5.78;;;1.45;;
47251;SDS011;32991;51.374;11.586;2023-04-01T00:28:33;6.65;;;1.73;;
47251;SDS011;32991;51.374;11.586;2023-04-01T00:31:03;5.10;;;1.63;;
47251;SDS011;32991;51.374;11.586;2023-04-01T00:33:31;4.50;;;1.40;;
47251;SDS011;32991;51.374;11.586;2023-04-01T00:36:12;3.95;;;1.55;;
47251;SDS011;32991;51.374;11.586;2023-04-01T00:38:40;3.35;;;1.30;;
47251;SDS011;32991;51.374;11.586;2023-04-01T00:41:07;5.22;;;1.48;;
47251;SDS011;32991;51.374;11.586;2023-04-01T00:43:35;6.63;;;1.52;;
47251;SDS011;32991;51.374;11.586;2023-04-01T00:46:02;4.65;;;1.55;;
47251;SDS011;32991;51.374;11.586;2023-04-01T00:48:30;4.18;;;1.60;;
47251;SDS011;32991;51.374;11.586;2023-04-01T00:50:59;5.22;;;1.60;;
47251;SDS011;32991;51.374;11.586;2023-04-01T00:53:33;2.63;;;1.40;;
47251;SDS011;32991;51.374;11.586;2023-04-01T00:56:03;3.20;;;1.20;;
47251;SDS011;32991;51.374;11.586;2023-04-01T00:58:32;3.45;;;1.50;;
47251;SDS011;32991;51.374;11.586;2023-04-01T01:01:01;4.78;;;1.70;;
47251;SDS011;32991;51.374;11.586;2023-04-01T01:03:28;2.95;;;1.40;;
47251;SDS011;32991;51.374;11.586;2023-04-01T01:11:13;2.53;;;1.30;;
47251;SDS011;32991;51.374;11.586;2023-04-01T01:13:46;4.50;;;1.85;;
47251;SDS011;32991;51.374;11.586;2023-04-01T01:16:25;4.78;;;1.38;;
47251;SDS011;32991;51.374;11.586;2023-04-01T01:18:57;4.60;;;1.40;;
47251;SDS011;32991;51.374;11.586;2023-04-01T01:27:39;7.03;;;1.70;;
47251;SDS011;32991;51.374;11.586;2023-04-01T01:38:16;4.15;;;1.42;;
47251;SDS011;32991;51.374;11.586;2023-04-01T01:40:50;6.88;;;1.40;;
47251;SDS011;32991;51.374;11.586;2023-04-01T01:43:29;5.72;;;1.60;;
47251;SDS011;32991;51.374;11.586;2023-04-01T01:45:59;4.75;;;1.48;;
47251;SDS011;32991;51.374;11.586;2023-04-01T01:48:29;7.05;;;1.65;;
47251;SDS011;32991;51.374;11.586;2023-04-01T01:50:58;4.47;;;1.45;;
47251;SDS011;32991;51.374;11.586;2023-04-01T01:53:25;3.25;;;1.50;;
47251;SDS011;32991;51.374;11.586;2023-04-01T01:55:52;5.93;;;1.77;;
47251;SDS011;32991;51.374;11.586;2023-04-01T01:58:27;3.28;;;1.30;;
47251;SDS011;32991;51.374;11.586;2023-04-01T02:01:01;4.97;;;1.60;;
47251;SDS011;32991;51.374;11.586;2023-04-01T02:03:30;3.17;;;1.38;;
47251;SDS011;32991;51.374;11.586;2023-04-01T02:06:00;4.07;;;1.45;;
47251;SDS011;32991;51.374;11.586;2023-04-01T02:08:30;6.07;;;1.85;;
47251;SDS011;32991;51.374;11.586;2023-04-01T02:11:03;4.85;;;0.98;;
47251;SDS011;32991;51.374;11.586;2023-04-01T02:13:39;3.28;;;1.63;;
47251;SDS011;32991;51.374;11.586;2023-04-01T02:16:13;5.82;;;1.65;;
47251;SDS011;32991;51.374;11.586;2023-04-01T02:18:44;5.13;;;1.40;;
47251;SDS011;32991;51.374;11.586;2023-04-01T02:21:11;4.00;;;1.52;;
47251;SDS011;32991;51.374;11.586;2023-04-01T02:23:38;4.32;;;1.13;;
47251;SDS011;32991;51.374;11.586;2023-04-01T02:26:05;3.90;;;1.58;;
47251;SDS011;32991;51.374;11.586;2023-04-01T02:28:34;6.38;;;1.63;;
47251;SDS011;32991;51.374;11.586;2023-04-01T02:31:03;5.72;;;1.73;;
47251;SDS011;32991;51.374;11.586;2023-04-01T02:33:30;4.07;;;1.40;;
47251;SDS011;32991;51.374;11.586;2023-04-01T02:35:57;3.90;;;1.50;;
47251;SDS011;32991;51.374;11.586;2023-04-01T02:38:24;2.33;;;1.48;;
47251;SDS011;32991;51.374;11.586;2023-04-01T02:40:52;4.47;;;1.60;;
47251;SDS011;32991;51.374;11.586;2023-04-01T02:43:24;1.38;;;0.70;;
47251;SDS011;32991;51.374;11.586;2023-04-01T02:45:50;2.85;;;1.30;;
47251;SDS011;32991;51.374;11.586;2023-04-01T02:48:17;2.83;;;1.42;;
47251;SDS011;32991;51.374;11.586;2023-04-01T02:50:44;3.00;;;1.35;;
47251;SDS011;32991;51.374;11.586;2023-04-01T02:53:10;3.50;;;1.27;;
47251;SDS011;32991;51.374;11.586;2023-04-01T02:55:38;3.72;;;1.23;;
47251;SDS011;32991;51.374;11.586;2023-04-01T02:58:04;4.53;;;1.50;;
47251;SDS011;32991;51.374;11.586;2023-04-01T03:00:31;3.63;;;1.10;;
47251;SDS011;32991;51.374;11.586;2023-04-01T03:02:58;4.13;;;1.13;;
47251;SDS011;32991;51.374;11.586;2023-04-01T03:05:25;5.53;;;1.35;;
47251;SDS011;32991;51.374;11.586;2023-04-01T03:07:51;5.10;;;1.25;;
47251;SDS011;32991;51.374;11.586;2023-04-01T03:10:18;3.00;;;1.13;;
47251;SDS011;32991;51.374;11.586;2023-04-01T03:12:45;3.15;;;1.30;;
47251;SDS011;32991;51.374;11.586;2023-04-01T03:15:12;3.55;;;1.38;;
47251;SDS011;32991;51.374;11.586;2023-04-01T03:17:41;3.72;;;1.20;;
47251;SDS011;32991;51.374;11.586;2023-04-01T03:20:10;2.00;;;1.10;;
47251;SDS011;32991;51.374;11.586;2023-04-01T03:22:37;2.92;;;1.20;;
47251;SDS011;32991;51.374;11.586;2023-04-01T03:25:07;3.17;;;1.52;;
47251;SDS011;32991;51.374;11.586;2023-04-01T03:27:34;1.52;;;1.05;;
47251;SDS011;32991;51.374;11.586;2023-04-01T03:30:04;2.78;;;1.35;;
47251;SDS011;32991;51.374;11.586;2023-04-01T03:32:38;2.33;;;1.20;;
47251;SDS011;32991;51.374;11.586;2023-04-01T03:35:05;4.25;;;1.40;;
47251;SDS011;32991;51.374;11.586;2023-04-01T03:37:32;3.80;;;1.45;;
47251;SDS011;32991;51.374;11.586;2023-04-01T03:39:59;2.78;;;1.23;;
47251;SDS011;32991;51.374;11.586;2023-04-01T03:42:25;4.53;;;1.50;;
47251;SDS011;32991;51.374;11.586;2023-04-01T03:44:52;5.47;;;1.30;;
47251;SDS011;32991;51.374;11.586;2023-04-01T03:47:19;2.35;;;1.35;;
47251;SDS011;32991;51.374;11.586;2023-04-01T03:49:45;4.28;;;1.30;;
47251;SDS011;32991;51.374;11.586;2023-04-01T03:52:12;4.00;;;1.25;;
47251;SDS011;32991;51.374;11.586;2023-04-01T03:54:39;5.10;;;1.58;;
47251;SDS011;32991;51.374;11.586;2023-04-01T03:57:06;6.90;;;1.45;;
47251;SDS011;32991;51.374;11.586;2023-04-01T03:59:33;5.35;;;1.40;;
47251;SDS011;32991;51.374;11.586;2023-04-01T04:02:00;2.20;;;1.10;;
47251;SDS011;32991;51.374;11.586;2023-04-01T04:04:27;4.10;;;1.13;;
47251;SDS011;32991;51.374;11.586;2023-04-01T04:06:54;3.20;;;1.30;;
47251;SDS011;32991;51.374;11.586;2023-04-01T04:09:23;3.80;;;1.20;;
47251;SDS011;32991;51.374;11.586;2023-04-01T04:11:50;2.63;;;1.30;;
47251;SDS011;32991;51.374;11.586;2023-04-01T04:14:17;3.55;;;1.48;;
47251;SDS011;32991;51.374;11.586;2023-04-01T04:16:45;4.35;;;1.55;;
47251;SDS011;32991;51.374;11.586;2023-04-01T04:19:11;5.90;;;1.50;;
47251;SDS011;32991;51.374;11.586;2023-04-01T04:21:39;3.88;;;1.08;;
47251;SDS011;32991;51.374;11.586;2023-04-01T04:24:06;2.45;;;1.13;;
47251;SDS011;32991;51.374;11.586;2023-04-01T04:26:57;3.25;;;1.23;;
47251;SDS011;32991;51.374;11.586;2023-04-01T04:29:24;2.95;;;1.10;;
47251;SDS011;32991;51.374;11.586;2023-04-01T04:31:51;4.22;;;1.42;;
47251;SDS011;32991;51.374;11.586;2023-04-01T04:34:18;3.22;;;1.27;;
47251;SDS011;32991;51.374;11.586;2023-04-01T04:36:45;4.10;;;1.27;;
47251;SDS011;32991;51.374;11.586;2023-04-01T04:39:12;3.17;;;1.13;;
47251;SDS011;32991;51.374;11.586;2023-04-01T04:41:40;3.42;;;1.15;;
47251;SDS011;32991;51.374;11.586;2023-04-01T04:44:07;3.88;;;1.35;;
47251;SDS011;32991;51.374;11.586;2023-04-01T04:46:34;2.63;;;1.15;;
47251;SDS011;32991;51.374;11.586;2023-04-01T04:49:11;3.45;;;1.30;;
47251;SDS011;32991;51.374;11.586;2023-04-01T04:51:37;3.15;;;1.13;;
47251;SDS011;32991;51.374;11.586;2023-04-01T04:54:04;3.03;;;1.15;;
47251;SDS011;32991;51.374;11.586;2023-04-01T04:56:57;2.45;;;1.10;;
47251;SDS011;32991;51.374;11.586;2023-04-01T04:59:26;1.83;;;1.00;;
47251;SDS011;32991;51.374;11.586;2023-04-01T05:02:01;4.35;;;1.27;;
47251;SDS011;32991;51.374;11.586;2023-04-01T05:04:28;3.75;;;1.20;;
47251;SDS011;32991;51.374;11.586;2023-04-01T05:06:55;2.53;;;1.00;;
47251;SDS011;32991;51.374;11.586;2023-04-01T05:09:22;3.85;;;1.20;;
47251;SDS011;32991;51.374;11.586;2023-04-01T05:11:49;2.47;;;1.20;;
47251;SDS011;32991;51.374;11.586;2023-04-01T05:14:16;4.88;;;1.63;;
47251;SDS011;32991;51.374;11.586;2023-04-01T05:16:52;3.55;;;1.20;;
47251;SDS011;32991;51.374;11.586;2023-04-01T05:19:20;3.63;;;1.00;;
47251;SDS011;32991;51.374;11.586;2023-04-01T05:21:47;3.10;;;0.90;;
47251;SDS011;32991;51.374;11.586;2023-04-01T05:24:14;1.13;;;0.95;;
47251;SDS011;32991;51.374;11.586;2023-04-01T05:26:41;4.13;;;1.35;;
47251;SDS011;32991;51.374;11.586;2023-04-01T05:29:08;3.13;;;1.20;;
47251;SDS011;32991;51.374;11.586;2023-04-01T05:31:34;2.45;;;1.20;;
47251;SDS011;32991;51.374;11.586;2023-04-01T05:34:03;2.33;;;1.20;;
47251;SDS011;32991;51.374;11.586;2023-04-01T05:36:29;2.45;;;1.30;;
47251;SDS011;32991;51.374;11.586;2023-04-01T05:38:56;5.80;;;1.35;;
47251;SDS011;32991;51.374;11.586;2023-04-01T05:41:25;2.15;;;1.00;;
47251;SDS011;32991;51.374;11.586;2023-04-01T05:43:51;3.22;;;1.20;;
47251;SDS011;32991;51.374;11.586;2023-04-01T05:46:53;5.22;;;1.08;;
47251;SDS011;32991;51.374;11.586;2023-04-01T05:49:22;1.80;;;1.20;;
47251;SDS011;32991;51.374;11.586;2023-04-01T05:51:49;2.75;;;1.20;;
47251;SDS011;32991;51.374;11.586;2023-04-01T05:54:17;2.42;;;1.00;;
47251;SDS011;32991;51.374;11.586;2023-04-01T05:56:45;2.17;;;1.02;;
47251;SDS011;32991;51.374;11.586;2023-04-01T05:59:14;3.90;;;1.30;;
47251;SDS011;32991;51.374;11.586;2023-04-01T06:01:41;1.55;;;0.95;;
47251;SDS011;32991;51.374;11.586;2023-04-01T06:04:15;2.08;;;0.90;;
47251;SDS011;32991;51.374;11.586;2023-04-01T06:06:44;3.78;;;1.00;;
47251;SDS011;32991;51.374;11.586;2023-04-01T06:11:57;3.13;;;1.23;;
47251;SDS011;32991;51.374;11.586;2023-04-01T06:15:13;2.20;;;1.00;;
47251;SDS011;32991;51.374;11.586;2023-04-01T06:18:13;2.67;;;0.95;;
47251;SDS011;32991;51.374;11.586;2023-04-01T06:20:50;3.47;;;1.00;;
47251;SDS011;32991;51.374;11.586;2023-04-01T06:23:37;4.90;;;1.00;;
47251;SDS011;32991;51.374;11.586;2023-04-01T06:26:12;3.70;;;1.10;;
47251;SDS011;32991;51.374;11.586;2023-04-01T06:28:58;2.78;;;1.10;;
47251;SDS011;32991;51.374;11.586;2023-04-01T06:34:29;2.45;;;0.90;;
47251;SDS011;32991;51.374;11.586;2023-04-01T06:40:36;3.70;;;1.10;;
47251;SDS011;32991;51.374;11.586;2023-04-01T06:43:14;2.45;;;1.30;;
47251;SDS011;32991;51.374;11.586;2023-04-01T06:46:09;2.20;;;0.88;;
47251;SDS011;32991;51.374;11.586;2023-04-01T06:55:36;3.17;;;1.15;;
47251;SDS011;32991;51.374;11.586;2023-04-01T07:01:00;3.13;;;0.90;;
47251;SDS011;32991;51.374;11.586;2023-04-01T07:03:32;2.20;;;1.02;;
47251;SDS011;32991;51.374;11.586;2023-04-01T07:06:03;0.70;;;0.63;;
47251;SDS011;32991;51.374;11.586;2023-04-01T07:08:41;2.55;;;1.00;;
47251;SDS011;32991;51.374;11.586;2023-04-01T07:11:10;3.78;;;0.90;;
47251;SDS011;32991;51.374;11.586;2023-04-01T07:14:24;1.02;;;0.80;;
47251;SDS011;32991;51.374;11.586;2023-04-01T07:16:59;3.22;;;1.15;;
47251;SDS011;32991;51.374;11.586;2023-04-01T07:22:40;3.13;;;1.00;;
47251;SDS011;32991;51.374;11.586;2023-04-01T07:25:21;3.15;;;0.80;;
47251;SDS011;32991;51.374;11.586;2023-04-01T07:28:12;2.22;;;1.08;;
47251;SDS011;32991;51.374;11.586;2023-04-01T07:30:48;0.98;;;0.82;;
47251;SDS011;32991;51.374;11.586;2023-04-01T07:39:18;2.75;;;1.30;;
47251;SDS011;32991;51.374;11.586;2023-04-01T07:48:15;1.92;;;0.80;;
47251;SDS011;32991;51.374;11.586;2023-04-01T07:51:03;1.67;;;0.80;;
47251;SDS011;32991;51.374;11.586;2023-04-01T07:53:38;2.25;;;0.85;;
47251;SDS011;32991;51.374;11.586;2023-04-01T07:56:18;2.15;;;0.88;;
47251;SDS011;32991;51.374;11.586;2023-04-01T08:07:20;1.50;;;0.60;;
47251;SDS011;32991;51.374;11.586;2023-04-01T08:10:43;2.97;;;0.90;;
47251;SDS011;32991;51.374;11.586;2023-04-01T08:13:57;1.50;;;0.80;;
47251;SDS011;32991;51.374;11.586;2023-04-01T08:16:59;1.92;;;0.88;;
47251;SDS011;32991;51.374;11.586;2023-04-01T08:20:13;4.25;;;1.00;;
47251;SDS011;32991;51.374;11.586;2023-04-01T08:22:46;1.48;;;1.00;;
47251;SDS011;32991;51.374;11.586;2023-04-01T08:25:24;2.75;;;0.77;;
47251;SDS011;32991;51.374;11.586;2023-04-01T08:28:03;2.40;;;0.57;;
47251;SDS011;32991;51.374;11.586;2023-04-01T08:30:37;2.55;;;0.85;;
47251;SDS011;32991;51.374;11.586;2023-04-01T08:33:13;1.65;;;0.60;;
47251;SDS011;32991;51.374;11.586;2023-04-01T08:35:44;1.67;;;0.80;;
47251;SDS011;32991;51.374;11.586;2023-04-01T08:41:00;0.85;;;0.60;;
47251;SDS011;32991;51.374;11.586;2023-04-01T08:49:15;2.30;;;0.70;;
47251;SDS011;32991;51.374;11.586;2023-04-01T08:55:12;1.92;;;0.88;;
47251;SDS011;32991;51.374;11.586;2023-04-01T09:04:14;2.03;;;0.60;;
47251;SDS011;32991;51.374;11.586;2023-04-01T09:09:36;1.90;;;0.77;;
47251;SDS011;32991;51.374;11.586;2023-04-01T09:17:58;0.90;;;0.47;;
47251;SDS011;32991;51.374;11.586;2023-04-01T09:20:51;0.68;;;0.50;;
47251;SDS011;32991;51.374;11.586;2023-04-01T09:23:40;1.00;;;0.70;;
47251;SDS011;32991;51.374;11.586;2023-04-01T09:28:50;0.85;;;0.50;;
47251;SDS011;32991;51.374;11.586;2023-04-01T09:31:43;1.55;;;0.80;;
47251;SDS011;32991;51.374;11.586;2023-04-01T09:37:57;1.55;;;0.68;;
47251;SDS011;32991;51.374;11.586;2023-04-01T09:40:34;1.20;;;0.68;;
47251;SDS011;32991;51.374;11.586;2023-04-01T09:43:50;0.95;;;0.60;;
47251;SDS011;32991;51.374;11.586;2023-04-01T09:46:54;1.50;;;0.70;;
47251;SDS011;32991;51.374;11.586;2023-04-01T09:52:24;0.90;;;0.60;;
47251;SDS011;32991;51.374;11.586;2023-04-01T10:04:07;1.70;;;0.65;;
47251;SDS011;32991;51.374;11.586;2023-04-01T10:09:29;1.30;;;0.77;;
47251;SDS011;32991;51.374;11.586;2023-04-01T10:29:44;1.23;;;0.80;;
47251;SDS011;32991;51.374;11.586;2023-04-01T10:40:46;0.75;;;0.40;;
47251;SDS011;32991;51.374;11.586;2023-04-01T10:43:46;0.85;;;0.50;;
47251;SDS011;32991;51.374;11.586;2023-04-01T10:46:45;0.70;;;0.50;;
47251;SDS011;32991;51.374;11.586;2023-04-01T10:49:37;0.95;;;0.38;;
47251;SDS011;32991;51.374;11.586;2023-04-01T10:55:36;1.15;;;0.50;;
47251;SDS011;32991;51.374;11.586;2023-04-01T11:10:57;0.90;;;0.50;;
47251;SDS011;32991;51.374;11.586;2023-04-01T11:17:03;0.77;;;0.50;;
47251;SDS011;32991;51.374;11.586;2023-04-01T11:23:10;0.57;;;0.47;;
47251;SDS011;32991;51.374;11.586;2023-04-01T11:32:37;0.63;;;0.45;;
47251;SDS011;32991;51.374;11.586;2023-04-01T11:40:56;0.40;;;0.40;;
47251;SDS011;32991;51.374;11.586;2023-04-01T11:58:18;0.60;;;0.47;;
47251;SDS011;32991;51.374;11.586;2023-04-01T12:01:03;0.50;;;0.40;;
47251;SDS011;32991;51.374;11.586;2023-04-01T12:06:41;0.47;;;0.47;;
47251;SDS011;32991;51.374;11.586;2023-04-01T12:12:10;0.40;;;0.40;;
47251;SDS011;32991;51.374;11.586;2023-04-01T12:14:44;0.35;;;0.35;;
47251;SDS011;32991;51.374;11.586;2023-04-01T12:23:03;1.20;;;0.65;;
47251;SDS011;32991;51.374;11.586;2023-04-01T12:30:49;0.82;;;0.50;;
47251;SDS011;32991;51.374;11.586;2023-04-01T12:36:19;1.45;;;0.50;;
47251;SDS011;32991;51.374;11.586;2023-04-01T12:47:40;0.60;;;0.40;;
47251;SDS011;32991;51.374;11.586;2023-04-01T12:59:19;0.82;;;0.60;;
47251;SDS011;32991;51.374;11.586;2023-04-01T13:02:13;1.10;;;0.40;;
47251;SDS011;32991;51.374;11.586;2023-04-01T13:05:47;1.05;;;0.68;;
47251;SDS011;32991;51.374;11.586;2023-04-01T13:07:53;0.68;;;0.50;;
47251;SDS011;32991;51.374;11.586;2023-04-01T13:16:11;1.02;;;0.60;;
47251;SDS011;32991;51.374;11.586;2023-04-01T13:24:30;2.70;;;0.60;;
47251;SDS011;32991;51.374;11.586;2023-04-01T13:29:34;1.27;;;0.70;;
47251;SDS011;32991;51.374;11.586;2023-04-01T13:32:05;0.90;;;0.50;;
47251;SDS011;32991;51.374;11.586;2023-04-01T13:37:56;2.47;;;0.60;;
47251;SDS011;32991;51.374;11.586;2023-04-01T13:40:43;0.60;;;0.60;;
47251;SDS011;32991;51.374;11.586;2023-04-01T13:43:34;0.40;;;0.40;;
47251;SDS011;32991;51.374;11.586;2023-04-01T13:46:06;1.02;;;0.65;;
47251;SDS011;32991;51.374;11.586;2023-04-01T13:53:52;1.13;;;0.90;;
47251;SDS011;32991;51.374;11.586;2023-04-01T14:05:07;1.95;;;1.17;;
47251;SDS011;32991;51.374;11.586;2023-04-01T14:19:26;1.58;;;1.17;;
47251;SDS011;32991;51.374;11.586;2023-04-01T14:24:58;2.08;;;1.00;;
47251;SDS011;32991;51.374;11.586;2023-04-01T14:28:08;0.90;;;0.90;;
47251;SDS011;32991;51.374;11.586;2023-04-01T14:30:48;0.90;;;0.90;;
47251;SDS011;32991;51.374;11.586;2023-04-01T14:39:38;0.98;;;0.70;;
47251;SDS011;32991;51.374;11.586;2023-04-01T14:48:17;1.52;;;1.20;;
47251;SDS011;32991;51.374;11.586;2023-04-01T14:50:50;1.83;;;1.30;;
47251;SDS011;32991;51.374;11.586;2023-04-01T14:55:52;2.63;;;1.58;;
47251;SDS011;32991;51.374;11.586;2023-04-01T14:58:22;1.50;;;1.20;;
47251;SDS011;32991;51.374;11.586;2023-04-01T15:03:32;1.40;;;1.30;;
47251;SDS011;32991;51.374;11.586;2023-04-01T15:11:42;1.55;;;1.45;;
47251;SDS011;32991;51.374;11.586;2023-04-01T15:17:32;0.85;;;0.80;;
47251;SDS011;32991;51.374;11.586;2023-04-01T15:20:30;0.98;;;0.70;;
47251;SDS011;32991;51.374;11.586;2023-04-01T15:23:09;1.00;;;0.60;;
47251;SDS011;32991;51.374;11.586;2023-04-01T15:28:33;0.88;;;0.73;;
47251;SDS011;32991;51.374;11.586;2023-04-01T15:31:14;1.85;;;1.05;;
47251;SDS011;32991;51.374;11.586;2023-04-01T15:36:50;1.13;;;1.02;;
47251;SDS011;32991;51.374;11.586;2023-04-01T15:42:23;1.15;;;1.05;;
47251;SDS011;32991;51.374;11.586;2023-04-01T15:45:02;1.50;;;1.40;;
47251;SDS011;32991;51.374;11.586;2023-04-01T15:50:34;1.85;;;0.70;;
47251;SDS011;32991;51.374;11.586;2023-04-01T15:55:59;1.05;;;0.68;;
47251;SDS011;32991;51.374;11.586;2023-04-01T16:04:17;2.65;;;2.08;;
47251;SDS011;32991;51.374;11.586;2023-04-01T16:09:55;1.70;;;1.60;;
47251;SDS011;32991;51.374;11.586;2023-04-01T16:12:38;2.33;;;1.50;;
47251;SDS011;32991;51.374;11.586;2023-04-01T16:15:17;1.52;;;1.42;;
47251;SDS011;32991;51.374;11.586;2023-04-01T16:23:18;2.92;;;1.85;;
47251;SDS011;32991;51.374;11.586;2023-04-01T16:25:52;1.95;;;1.83;;
47251;SDS011;32991;51.374;11.586;2023-04-01T16:33:28;4.07;;;3.42;;
47251;SDS011;32991;51.374;11.586;2023-04-01T16:38:48;2.30;;;2.10;;
47251;SDS011;32991;51.374;11.586;2023-04-01T16:41:18;2.88;;;2.60;;
47251;SDS011;32991;51.374;11.586;2023-04-01T16:43:55;3.22;;;2.92;;
47251;SDS011;32991;51.374;11.586;2023-04-01T16:51:53;4.28;;;3.80;;
47251;SDS011;32991;51.374;11.586;2023-04-01T16:54:27;5.10;;;4.65;;
47251;SDS011;32991;51.374;11.586;2023-04-01T16:57:12;3.90;;;3.50;;
47251;SDS011;32991;51.374;11.586;2023-04-01T16:59:52;4.47;;;4.07;;
47251;SDS011;32991;51.374;11.586;2023-04-01T17:02:26;3.70;;;3.40;;
47251;SDS011;32991;51.374;11.586;2023-04-01T17:05:05;5.65;;;3.55;;
47251;SDS011;32991;51.374;11.586;2023-04-01T17:07:46;2.60;;;2.20;;
47251;SDS011;32991;51.374;11.586;2023-04-01T17:10:26;2.30;;;2.10;;
47251;SDS011;32991;51.374;11.586;2023-04-01T17:18:35;3.97;;;2.80;;
47251;SDS011;32991;51.374;11.586;2023-04-01T17:21:38;2.97;;;2.60;;
47251;SDS011;32991;51.374;11.586;2023-04-01T17:32:59;4.07;;;3.45;;
47251;SDS011;32991;51.374;11.586;2023-04-01T17:35:35;3.67;;;3.13;;
47251;SDS011;32991;51.374;11.586;2023-04-01T17:38:34;3.75;;;3.20;;
47251;SDS011;32991;51.374;11.586;2023-04-01T17:43:55;3.65;;;3.35;;
47251;SDS011;32991;51.374;11.586;2023-04-01T17:46:35;3.47;;;2.75;;
47251;SDS011;32991;51.374;11.586;2023-04-01T17:54:27;3.00;;;2.80;;
47251;SDS011;32991;51.374;11.586;2023-04-01T17:57:10;3.38;;;3.08;;
47251;SDS011;32991;51.374;11.586;2023-04-01T18:02:42;3.78;;;2.88;;
47251;SDS011;32991;51.374;11.586;2023-04-01T18:07:58;4.53;;;2.75;;
47251;SDS011;32991;51.374;11.586;2023-04-01T18:11:00;5.30;;;3.20;;
47251;SDS011;32991;51.374;11.586;2023-04-01T18:13:47;3.55;;;3.25;;
47251;SDS011;32991;51.374;11.586;2023-04-01T18:19:42;4.18;;;3.78;;
47251;SDS011;32991;51.374;11.586;2023-04-01T18:21:54;4.63;;;4.10;;
47251;SDS011;32991;51.374;11.586;2023-04-01T18:24:42;6.05;;;4.30;;
47251;SDS011;32991;51.374;11.586;2023-04-01T18:27:15;4.97;;;4.00;;
47251;SDS011;32991;51.374;11.586;2023-04-01T18:29:48;5.32;;;3.50;;
47251;SDS011;32991;51.374;11.586;2023-04-01T18:32:26;5.40;;;1.80;;
47251;SDS011;32991;51.374;11.586;2023-04-01T18:35:08;3.47;;;2.58;;
47251;SDS011;32991;51.374;11.586;2023-04-01T18:37:44;5.30;;;3.17;;
47251;SDS011;32991;51.374;11.586;2023-04-01T18:50:51;3.55;;;3.22;;
47251;SDS011;32991;51.374;11.586;2023-04-01T18:56:11;3.47;;;3.17;;
47251;SDS011;32991;51.374;11.586;2023-04-01T19:04:17;7.28;;;6.10;;
47251;SDS011;32991;51.374;11.586;2023-04-01T19:06:51;7.63;;;6.82;;
47251;SDS011;32991;51.374;11.586;2023-04-01T19:14:59;5.00;;;4.47;;
47251;SDS011;32991;51.374;11.586;2023-04-01T19:20:16;8.23;;;7.00;;
47251;SDS011;32991;51.374;11.586;2023-04-01T19:22:55;7.72;;;7.03;;
47251;SDS011;32991;51.374;11.586;2023-04-01T19:31:14;9.52;;;8.52;;
47251;SDS011;32991;51.374;11.586;2023-04-01T19:33:49;7.05;;;5.70;;
47251;SDS011;32991;51.374;11.586;2023-04-01T19:36:29;10.18;;;9.25;;
47251;SDS011;32991;51.374;11.586;2023-04-01T19:41:39;10.23;;;9.40;;
47251;SDS011;32991;51.374;11.586;2023-04-01T19:44:18;11.48;;;10.38;;
47251;SDS011;32991;51.374;11.586;2023-04-01T19:46:53;12.07;;;10.95;;
47251;SDS011;32991;51.374;11.586;2023-04-01T20:08:51;13.63;;;12.43;;
47251;SDS011;32991;51.374;11.586;2023-04-01T20:19:42;10.13;;;9.27;;
47251;SDS011;32991;51.374;11.586;2023-04-01T20:25:37;11.15;;;10.02;;
47251;SDS011;32991;51.374;11.586;2023-04-01T20:28:11;11.75;;;10.75;;
47251;SDS011;32991;51.374;11.586;2023-04-01T20:39:03;14.43;;;13.13;;
47251;SDS011;32991;51.374;11.586;2023-04-01T20:41:56;14.30;;;12.88;;
47251;SDS011;32991;51.374;11.586;2023-04-01T20:47:40;12.02;;;10.82;;
47251;SDS011;32991;51.374;11.586;2023-04-01T20:55:50;12.57;;;10.07;;
47251;SDS011;32991;51.374;11.586;2023-04-01T20:58:35;7.97;;;7.30;;
47251;SDS011;32991;51.374;11.586;2023-04-01T21:06:48;7.57;;;6.88;;
47251;SDS011;32991;51.374;11.586;2023-04-01T21:09:31;6.90;;;6.28;;
47251;SDS011;32991;51.374;11.586;2023-04-01T21:12:28;5.55;;;4.80;;
47251;SDS011;32991;51.374;11.586;2023-04-01T21:23:39;3.67;;;3.38;;
47251;SDS011;32991;51.374;11.586;2023-04-01T21:26:19;3.50;;;3.15;;
47251;SDS011;32991;51.374;11.586;2023-04-01T21:29:08;7.70;;;6.75;;
47251;SDS011;32991;51.374;11.586;2023-04-01T21:32:24;8.52;;;7.72;;
47251;SDS011;32991;51.374;11.586;2023-04-01T21:35:04;8.70;;;7.13;;
47251;SDS011;32991;51.374;11.586;2023-04-01T21:43:25;5.40;;;4.82;;
47251;SDS011;32991;51.374;11.586;2023-04-01T21:49:23;5.35;;;4.85;;
47251;SDS011;32991;51.374;11.586;2023-04-01T21:55:05;5.68;;;5.18;;
47251;SDS011;32991;51.374;11.586;2023-04-01T21:57:51;6.32;;;4.78;;
47251;SDS011;32991;51.374;11.586;2023-04-01T22:01:02;3.03;;;2.72;;
47251;SDS011;32991;51.374;11.586;2023-04-01T22:09:18;6.22;;;5.25;;
47251;SDS011;32991;51.374;11.586;2023-04-01T22:17:00;5.65;;;4.70;;
47251;SDS011;32991;51.374;11.586;2023-04-01T22:28:42;2.92;;;2.67;;
47251;SDS011;32991;51.374;11.586;2023-04-01T22:31:12;2.92;;;2.67;;
47251;SDS011;32991;51.374;11.586;2023-04-01T22:36:38;2.92;;;2.67;;
47251;SDS011;32991;51.374;11.586;2023-04-01T22:39:18;3.90;;;3.60;;
47251;SDS011;32991;51.374;11.586;2023-04-01T22:42:01;3.58;;;2.95;;
47251;SDS011;32991;51.374;11.586;2023-04-01T22:45:10;3.80;;;3.40;;
47251;SDS011;32991;51.374;11.586;2023-04-01T22:47:41;3.85;;;3.45;;
47251;SDS011;32991;51.374;11.586;2023-04-01T22:50:41;4.30;;;3.42;;
47251;SDS011;32991;51.374;11.586;2023-04-01T22:53:20;3.97;;;3.28;;
47251;SDS011;32991;51.374;11.586;2023-04-01T22:55:52;8.20;;;3.42;;
47251;SDS011;32991;51.374;11.586;2023-04-01T22:58:25;3.80;;;3.17;;
47251;SDS011;32991;51.374;11.586;2023-04-01T23:01:07;3.65;;;3.30;;
47251;SDS011;32991;51.374;11.586;2023-04-01T23:03:41;4.60;;;4.20;;
47251;SDS011;32991;51.374;11.586;2023-04-01T23:06:16;4.88;;;4.32;;
47251;SDS011;32991;51.374;11.586;2023-04-01T23:11:46;6.00;;;5.28;;
47251;SDS011;32991;51.374;11.586;2023-04-01T23:16:54;6.70;;;4.88;;
47251;SDS011;32991;51.374;11.586;2023-04-01T23:19:29;6.50;;;4.30;;
47251;SDS011;32991;51.374;11.586;2023-04-01T23:25:04;6.03;;;4.90;;
47251;SDS011;32991;51.374;11.586;2023-04-01T23:28:03;3.95;;;3.38;;
47251;SDS011;32991;51.374;11.586;2023-04-01T23:35:53;4.20;;;3.78;;
47251;SDS011;32991;51.374;11.586;2023-04-01T23:38:25;5.75;;;3.70;;
47251;SDS011;32991;51.374;11.586;2023-04-01T23:40:53;3.80;;;3.25;;
47251;SDS011;32991;51.374;11.586;2023-04-01T23:43:24;4.03;;;3.55;;
47251;SDS011;32991;51.374;11.586;2023-04-01T23:45:53;4.05;;;3.45;;
47251;SDS011;32991;51.374;11.586;2023-04-01T23:48:29;4.88;;;4.07;;
47251;SDS011;32991;51.374;11.586;2023-04-01T23:50:58;4.18;;;3.78;;
47251;SDS011;32991;51.374;11.586;2023-04-01T23:53:25;4.55;;;3.80;;
47251;SDS011;32991;51.374;11.586;2023-04-01T23:55:55;5.75;;;4.53;;
47251;SDS011;32991;51.374;11.586;2023-04-01T23:58:26;5.95;;;4.70;;
